createdAt,value
2019-05-10T08:36:47.785Z,37.3968
2019-05-10T08:36:56.411Z,37.4960
2019-05-10T08:37:04.839Z,37.5265
2019-05-10T08:37:19.415Z,37.5723
2019-05-10T08:37:36.162Z,37.4685
2019-05-10T08:37:43.255Z,37.6257
2019-05-10T08:37:53.023Z,37.5616
2019-05-10T08:38:02.308Z,37.5219
2019-05-10T08:38:13.089Z,37.4517
2019-05-10T08:38:21.994Z,37.7646
2019-05-10T08:38:31.929Z,37.5860
2019-05-10T08:38:47.174Z,37.4594
2019-05-10T08:39:05.022Z,37.6638
2019-05-10T08:39:10.803Z,37.6074
2019-05-10T08:39:22.210Z,37.6165
2019-05-10T08:39:34.838Z,37.6486
2019-05-10T08:39:49.026Z,37.7005
2019-05-10T08:39:59.610Z,37.5448
2019-05-10T08:40:08.028Z,37.4701
2019-05-10T08:40:19.799Z,37.3724
2019-05-10T08:40:36.835Z,37.3098
2019-05-10T08:40:45.247Z,37.5265
2019-05-10T08:40:53.670Z,37.5540
2019-05-10T08:41:02.760Z,37.6226
2019-05-10T08:41:18.327Z,37.6349
2019-05-10T08:41:26.944Z,37.5448
2019-05-10T08:41:35.370Z,37.5814
2019-05-10T08:41:45.879Z,37.4929
2019-05-10T08:42:03.935Z,37.5021
2019-05-10T08:42:32.150Z,37.4456
2019-05-10T08:42:40.101Z,37.5814
2019-05-10T08:42:45.474Z,37.5677
2019-05-10T08:43:02.853Z,37.6715
2019-05-10T08:43:08.954Z,37.7997
2019-05-10T08:43:19.504Z,37.7310
2019-05-10T08:43:30.823Z,37.7142
2019-05-10T08:43:43.036Z,37.6501
2019-05-10T08:43:52.508Z,37.6867
2019-05-10T08:44:04.603Z,37.7081
2019-05-10T08:44:19.324Z,37.6761
2019-05-10T08:44:27.787Z,37.6684
2019-05-10T08:44:36.205Z,37.6959
2019-05-10T08:44:44.621Z,37.7081
2019-05-10T08:45:03.237Z,37.6410
2019-05-10T08:45:08.933Z,37.6761
2019-05-10T08:45:17.567Z,37.6898
2019-05-10T08:45:25.989Z,37.5448
2019-05-10T08:45:38.982Z,37.4777
2019-05-10T08:46:11.787Z,37.8866
2019-05-10T08:46:28.688Z,37.5341
2019-05-10T08:46:40.929Z,37.5586
2019-05-10T08:46:49.354Z,37.5311
2019-05-10T08:46:57.850Z,37.5723
2019-05-10T08:47:07.741Z,37.5616
2019-05-10T08:47:26.740Z,37.3449
2019-05-10T08:47:35.197Z,37.5341
2019-05-10T08:47:43.648Z,37.6181
2019-05-10T08:48:00.486Z,37.6211
2019-05-10T08:48:07.175Z,37.5937
2019-05-10T08:48:15.774Z,37.6318
2019-05-10T08:48:27.155Z,37.5860
2019-05-10T08:48:41.432Z,37.6394
2019-05-10T08:48:53.616Z,37.5586
2019-05-10T08:49:02.401Z,37.2503
2019-05-10T08:59:14.572Z,37.3770
2019-05-10T08:59:26.584Z,37.2442
2019-05-10T08:59:35.307Z,37.2442
2019-05-10T08:59:43.792Z,37.2259
2019-05-10T09:06:23.265Z,37.3144
2019-05-10T09:06:32.782Z,37.3144
2019-05-10T09:06:42.054Z,37.3358
2019-05-10T09:06:56.004Z,37.3358
2019-05-10T09:07:05.061Z,37.3678
2019-05-10T09:07:13.537Z,37.4289
2019-05-10T09:07:23.268Z,37.3724
2019-05-10T09:07:34.917Z,37.3129
2019-05-10T09:07:46.299Z,37.4182
2019-05-10T09:07:54.784Z,37.3602
2019-05-10T09:08:05.766Z,37.3495
2019-05-10T09:08:19.997Z,37.3144
2019-05-10T09:34:32.357Z,37.3190
2019-05-10T09:34:42.583Z,37.3510
2019-05-10T09:34:54.034Z,37.3678
2019-05-10T09:35:07.876Z,37.3098
2019-05-10T09:35:17.155Z,37.2717
2019-05-10T09:35:25.564Z,37.2946
2019-05-10T09:35:38.863Z,37.3327
2019-05-10T09:35:54.190Z,37.2732
2019-05-10T09:36:03.047Z,37.2732
2019-05-10T09:36:12.473Z,37.2595
2019-05-10T09:36:23.190Z,37.3037
2019-05-10T09:36:36.380Z,37.3190
2019-05-10T09:36:47.007Z,37.2717
2019-05-10T09:36:55.658Z,37.2946
2019-05-10T09:37:08.106Z,37.2946
2019-05-10T09:37:18.430Z,37.2580
2019-05-10T09:37:26.836Z,37.2915
2019-05-10T09:37:35.267Z,37.3083
2019-05-10T09:37:47.594Z,37.4044
2019-05-10T09:37:58.648Z,37.3678
2019-05-10T09:38:07.203Z,37.3770
2019-05-10T09:38:15.647Z,37.2854
2019-05-10T09:38:28.620Z,37.2778
2019-05-10T09:38:40.375Z,37.2671
2019-05-10T09:38:52.659Z,37.2259
2019-05-10T09:39:03.373Z,37.2503
2019-05-10T09:39:17.558Z,37.2030
2019-05-10T09:39:26.305Z,37.1847
2019-05-10T09:39:34.793Z,37.1405
2019-05-10T09:39:43.268Z,37.0947
2019-05-10T09:39:55.488Z,37.1038
2019-05-10T09:40:10.013Z,37.0672
2019-05-10T09:40:21.992Z,37.1252
2019-05-10T09:40:32.747Z,37.0947
2019-05-10T09:41:42.172Z,37.1023
2019-05-10T09:41:53.098Z,37.2000
2019-05-10T09:42:07.874Z,37.1817
2019-05-10T09:42:25.172Z,37.1252
2019-05-10T09:42:37.681Z,37.1801
2019-05-10T09:42:45.488Z,37.2183
2019-05-10T09:42:54.094Z,37.2045
2019-05-10T09:43:07.430Z,37.1679
2019-05-10T09:43:17.282Z,37.2732
2019-05-10T09:43:25.926Z,37.2412
2019-05-10T09:43:34.554Z,37.1725
2019-05-10T09:43:48.759Z,37.2183
2019-05-10T09:43:57.810Z,37.1130
2019-05-10T09:44:06.422Z,37.2549
2019-05-10T09:44:15.031Z,37.3053
2019-05-10T09:44:23.656Z,37.3144
2019-05-10T09:44:33.003Z,37.3877
2019-05-10T09:44:45.614Z,37.2808
2019-05-10T09:44:54.520Z,37.2305
2019-05-10T09:45:03.224Z,37.1679
2019-05-10T09:45:12.834Z,37.1679
2019-05-10T09:45:24.138Z,37.2000
2019-05-10T09:45:32.921Z,37.1405
2019-05-10T09:45:42.387Z,37.1725
2019-05-10T09:45:53.052Z,37.1389
2019-05-10T09:46:02.775Z,37.1405
2019-05-10T09:46:14.032Z,37.1160
2019-05-10T09:46:23.026Z,37.1817
2019-05-10T09:46:32.461Z,37.2412
2019-05-10T09:46:42.196Z,37.2503
2019-05-10T09:46:52.494Z,37.2396
2019-05-10T09:47:03.644Z,37.1954
2019-05-10T09:47:12.563Z,37.1664
2019-05-10T09:47:22.188Z,37.1435
2019-05-10T09:47:33.013Z,37.1298
2019-05-10T09:47:43.389Z,37.1542
2019-05-10T09:47:53.013Z,37.2366
2019-05-10T09:48:02.578Z,37.1435
2019-05-10T09:48:12.100Z,37.1679
2019-05-10T09:48:22.863Z,37.1862
2019-05-10T09:48:33.309Z,37.1725
2019-05-10T09:48:44.674Z,37.1756
2019-05-10T09:48:54.498Z,37.5265
2019-05-10T09:49:15.676Z,37.2732
2019-05-10T09:49:23.351Z,37.5082
2019-05-10T09:49:33.195Z,37.3312
2019-05-10T09:49:46.801Z,37.3419
2019-05-10T09:50:16.807Z,37.5906
2019-05-10T09:50:30.417Z,37.6822
2019-05-10T09:50:47.173Z,37.7859
2019-05-10T09:50:57.222Z,37.6257
2019-05-10T09:51:08.801Z,37.6593
2019-05-10T09:51:25.605Z,37.6318
2019-05-10T10:37:31.347Z,97.3159
2019-05-10T10:37:39.919Z,97.4136
2019-05-10T10:37:48.385Z,97.4853
2019-05-10T10:38:02.666Z,97.5311
2019-05-10T10:38:12.137Z,97.6547
2019-05-10T10:38:20.649Z,97.7340
2019-05-10T10:38:31.270Z,97.7783
2019-05-10T10:38:45.179Z,97.8531
2019-05-10T10:38:54.393Z,97.9171
2019-05-10T10:39:02.900Z,97.9980
2019-05-10T10:39:11.360Z,98.0316
2019-05-10T10:39:22.834Z,98.0865
2019-05-10T10:39:31.666Z,98.1277
2019-05-10T10:39:40.713Z,98.1460
2019-05-10T10:39:49.178Z,98.2010
2019-05-10T10:40:03.043Z,98.2269
2019-05-10T10:40:15.120Z,98.3139
2019-05-10T10:40:27.879Z,98.3368
2019-05-10T10:40:44.120Z,98.3841
2019-05-10T10:40:51.017Z,98.4100
2019-05-10T10:40:59.536Z,98.4802
2019-05-10T10:41:08.355Z,98.4985
2019-05-10T10:41:25.659Z,98.5199
2019-05-10T10:41:31.972Z,98.5534
2019-05-10T10:41:40.508Z,98.5901
2019-05-10T10:41:51.624Z,98.6435
2019-05-10T10:42:02.414Z,98.6343
2019-05-10T10:42:14.910Z,98.6801
2019-05-10T10:42:23.303Z,98.7305
2019-05-10T10:42:31.723Z,98.7488
2019-05-10T10:42:40.119Z,98.7396
2019-05-10T10:42:48.516Z,98.7686
2019-05-10T10:42:57.803Z,98.8190
2019-05-10T10:43:07.502Z,98.9456
2019-05-10T10:43:20.713Z,98.9837
2019-05-10T10:43:29.141Z,98.9746
2019-05-10T10:43:37.548Z,98.9014
2019-05-10T10:43:48.250Z,98.8693
2019-05-10T10:43:58.343Z,98.8281
2019-05-10T10:50:51.212Z,85.0568
2019-05-10T10:50:59.165Z,89.4469
2019-05-10T10:51:08.141Z,90.1930
2019-05-10T10:51:18.187Z,84.4450
2019-05-10T10:51:31.906Z,88.4993
2019-05-10T10:51:41.195Z,84.8341
2019-05-10T10:51:49.757Z,83.1998
2019-05-10T10:51:58.221Z,87.1916
2019-05-10T10:52:11.114Z,87.4464
2019-05-10T10:52:21.094Z,85.0065
2019-05-10T10:52:29.599Z,86.5003
2019-05-10T10:52:38.052Z,83.9002
2019-05-10T10:52:46.493Z,84.7730
2019-05-10T10:52:57.353Z,81.8799
2019-05-10T10:53:07.965Z,83.4180
2019-05-10T10:53:17.911Z,82.9709
2019-05-10T10:53:28.271Z,78.6709
2019-05-10T10:53:36.865Z,73.7041
2019-05-10T10:54:11.941Z,60.8576
2019-05-10T10:54:22.522Z,58.9990
2019-05-10T10:54:37.433Z,60.0992
2019-05-10T10:54:48.190Z,62.0768
2019-05-10T10:54:57.668Z,56.7071
2019-05-10T10:55:11.085Z,54.1650
2019-05-10T10:55:20.755Z,65.2842
2019-05-10T10:55:30.498Z,68.4993
2019-05-10T10:55:48.379Z,68.7678
2019-05-10T10:56:03.539Z,67.3457
2019-05-10T10:56:12.397Z,67.6432
2019-05-10T10:56:20.949Z,69.2088
2019-05-10T10:56:29.436Z,69.2363
2019-05-10T10:56:37.916Z,69.6345
2019-05-10T10:56:48.273Z,69.9046
2019-05-10T10:56:59.337Z,66.8925
2019-05-10T10:57:08.173Z,54.3526
2019-05-10T10:57:18.006Z,57.4517
2019-05-10T10:57:27.932Z,60.4837
2019-05-10T10:57:37.377Z,50.8522
2019-05-10T10:57:48.112Z,47.1611
2019-05-10T10:57:57.752Z,60.7492
2019-05-10T10:58:07.328Z,63.5554
2019-05-10T10:58:18.579Z,65.7847
2019-05-10T10:58:27.679Z,59.8138
2019-05-10T10:58:36.180Z,60.4974
2019-05-10T10:58:44.631Z,60.3677
2019-05-10T10:58:53.131Z,60.4181
2019-05-10T10:59:01.540Z,65.2110
2019-05-10T10:59:09.958Z,62.2599
2019-05-10T10:59:18.427Z,52.9076
2019-05-10T10:59:26.860Z,60.5554
2019-05-10T10:59:37.376Z,61.2100
2019-05-10T10:59:47.506Z,64.2634
2019-05-10T10:59:57.473Z,66.3920
2019-05-10T11:00:07.656Z,56.7712
2019-05-10T11:00:20.388Z,54.0597
2019-05-10T11:00:30.574Z,61.1643
2019-05-10T11:00:39.363Z,60.2090
2019-05-10T11:00:48.205Z,65.0980
2019-05-10T11:00:56.760Z,62.5238
2019-05-10T11:01:10.657Z,60.9674
2019-05-10T11:01:25.139Z,54.0002
2019-05-10T11:01:49.036Z,61.5000
2019-05-10T11:01:56.568Z,72.7108
2019-05-10T11:02:28.884Z,66.8727
2019-05-10T11:02:31.374Z,69.7429
2019-05-10T11:02:33.605Z,69.7429
2019-05-10T11:02:46.821Z,69.7429
2019-05-10T11:02:56.702Z,69.7429
2019-05-10T11:03:05.001Z,69.7429
2019-05-10T11:03:13.301Z,69.7429
2019-05-10T11:03:24.018Z,69.7429
2019-05-10T11:03:35.877Z,69.7429
2019-05-10T11:03:44.174Z,69.7429
2019-05-10T11:03:52.523Z,69.7429
2019-05-10T11:04:03.576Z,69.7429
2019-05-10T11:04:16.399Z,69.7429
2019-05-10T11:04:24.843Z,69.7429
2019-05-10T11:04:33.145Z,69.7429
